sensor_id;sensor_type;location;lat;lon;timestamp;P1;durP1;ratioP1;P2;durP2;ratioP2
43933;SDS011;59081;42.706;23.306;2022-08-04T00:02:09;7.65;;;4.60;;
43933;SDS011;59081;42.706;23.306;2022-08-04T00:04:43;6.28;;;4.10;;
43933;SDS011;59081;42.706;23.306;2022-08-04T00:07:15;8.38;;;4.20;;
43933;SDS011;59081;42.706;23.306;2022-08-04T00:09:58;8.80;;;3.72;;
43933;SDS011;59081;42.706;23.306;2022-08-04T00:12:28;4.90;;;4.28;;
43933;SDS011;59081;42.706;23.306;2022-08-04T00:14:59;7.93;;;3.97;;
43933;SDS011;59081;42.706;23.306;2022-08-04T00:17:38;6.30;;;3.80;;
43933;SDS011;59081;42.706;23.306;2022-08-04T00:20:05;5.63;;;3.80;;
43933;SDS011;59081;42.706;23.306;2022-08-04T00:22:33;6.90;;;3.95;;
43933;SDS011;59081;42.706;23.306;2022-08-04T00:25:03;5.85;;;4.00;;
43933;SDS011;59081;42.706;23.306;2022-08-04T00:27:30;3.90;;;3.42;;
43933;SDS011;59081;42.706;23.306;2022-08-04T00:29:56;5.65;;;4.22;;
43933;SDS011;59081;42.706;23.306;2022-08-04T00:32:23;5.50;;;3.72;;
43933;SDS011;59081;42.706;23.306;2022-08-04T00:34:50;8.35;;;4.32;;
43933;SDS011;59081;42.706;23.306;2022-08-04T00:37:19;8.57;;;4.65;;
43933;SDS011;59081;42.706;23.306;2022-08-04T00:39:46;5.25;;;3.88;;
43933;SDS011;59081;42.706;23.306;2022-08-04T00:42:25;4.50;;;3.90;;
43933;SDS011;59081;42.706;23.306;2022-08-04T00:50:51;7.22;;;4.05;;
43933;SDS011;59081;42.706;23.306;2022-08-04T00:58:49;4.72;;;4.22;;
43933;SDS011;59081;42.706;23.306;2022-08-04T01:18:18;11.57;;;7.15;;
43933;SDS011;59081;42.706;23.306;2022-08-04T01:29:10;6.72;;;5.68;;
43933;SDS011;59081;42.706;23.306;2022-08-04T01:34:35;7.47;;;4.60;;
43933;SDS011;59081;42.706;23.306;2022-08-04T01:40:02;6.78;;;5.07;;
43933;SDS011;59081;42.706;23.306;2022-08-04T01:42:33;6.38;;;4.43;;
43933;SDS011;59081;42.706;23.306;2022-08-04T01:45:04;8.55;;;4.90;;
43933;SDS011;59081;42.706;23.306;2022-08-04T01:50:01;6.10;;;3.90;;
43933;SDS011;59081;42.706;23.306;2022-08-04T01:52:30;7.35;;;4.72;;
43933;SDS011;59081;42.706;23.306;2022-08-04T01:54:58;12.77;;;5.55;;
43933;SDS011;59081;42.706;23.306;2022-08-04T01:57:27;8.93;;;5.38;;
43933;SDS011;59081;42.706;23.306;2022-08-04T01:59:53;7.22;;;5.35;;
43933;SDS011;59081;42.706;23.306;2022-08-04T02:02:23;6.25;;;4.65;;
43933;SDS011;59081;42.706;23.306;2022-08-04T02:04:48;7.00;;;4.18;;
43933;SDS011;59081;42.706;23.306;2022-08-04T02:10:05;5.32;;;3.90;;
43933;SDS011;59081;42.706;23.306;2022-08-04T02:12:48;4.80;;;4.28;;
43933;SDS011;59081;42.706;23.306;2022-08-04T02:15:23;6.78;;;4.00;;
43933;SDS011;59081;42.706;23.306;2022-08-04T02:18:03;6.57;;;3.67;;
43933;SDS011;59081;42.706;23.306;2022-08-04T02:20:34;5.75;;;4.00;;
43933;SDS011;59081;42.706;23.306;2022-08-04T02:23:07;5.78;;;3.60;;
43933;SDS011;59081;42.706;23.306;2022-08-04T02:25:46;7.82;;;3.92;;
43933;SDS011;59081;42.706;23.306;2022-08-04T02:31:05;7.75;;;4.43;;
43933;SDS011;59081;42.706;23.306;2022-08-04T02:33:39;7.50;;;4.05;;
43933;SDS011;59081;42.706;23.306;2022-08-04T02:36:08;5.63;;;3.97;;
43933;SDS011;59081;42.706;23.306;2022-08-04T02:38:57;4.78;;;4.05;;
43933;SDS011;59081;42.706;23.306;2022-08-04T02:41:25;5.05;;;3.58;;
43933;SDS011;59081;42.706;23.306;2022-08-04T02:44:00;7.97;;;4.10;;
43933;SDS011;59081;42.706;23.306;2022-08-04T02:46:28;5.75;;;3.55;;
43933;SDS011;59081;42.706;23.306;2022-08-04T02:48:55;4.78;;;3.78;;
43933;SDS011;59081;42.706;23.306;2022-08-04T02:51:28;5.93;;;4.00;;
43933;SDS011;59081;42.706;23.306;2022-08-04T02:53:56;5.88;;;4.15;;
43933;SDS011;59081;42.706;23.306;2022-08-04T02:56:23;4.95;;;4.20;;
43933;SDS011;59081;42.706;23.306;2022-08-04T02:58:52;7.38;;;4.57;;
43933;SDS011;59081;42.706;23.306;2022-08-04T03:01:22;11.43;;;4.80;;
43933;SDS011;59081;42.706;23.306;2022-08-04T03:03:55;8.63;;;4.45;;
43933;SDS011;59081;42.706;23.306;2022-08-04T03:23:28;4.88;;;4.30;;
43933;SDS011;59081;42.706;23.306;2022-08-04T03:29:25;7.15;;;4.30;;
43933;SDS011;59081;42.706;23.306;2022-08-04T03:43:50;6.70;;;4.68;;
43933;SDS011;59081;42.706;23.306;2022-08-04T03:57:57;8.30;;;4.38;;
43933;SDS011;59081;42.706;23.306;2022-08-04T04:03:43;8.20;;;4.28;;
43933;SDS011;59081;42.706;23.306;2022-08-04T04:28:49;5.30;;;4.45;;
43933;SDS011;59081;42.706;23.306;2022-08-04T04:34:15;12.32;;;6.22;;
43933;SDS011;59081;42.706;23.306;2022-08-04T04:39:35;7.63;;;5.05;;
43933;SDS011;59081;42.706;23.306;2022-08-04T04:42:29;9.07;;;5.10;;
43933;SDS011;59081;42.706;23.306;2022-08-04T04:45:21;14.82;;;4.90;;
43933;SDS011;59081;42.706;23.306;2022-08-04T04:47:54;8.88;;;4.95;;
43933;SDS011;59081;42.706;23.306;2022-08-04T04:51:05;10.50;;;6.32;;
43933;SDS011;59081;42.706;23.306;2022-08-04T04:56:40;15.02;;;7.43;;
43933;SDS011;59081;42.706;23.306;2022-08-04T04:59:12;8.07;;;6.25;;
43933;SDS011;59081;42.706;23.306;2022-08-04T05:09:31;7.88;;;5.00;;
43933;SDS011;59081;42.706;23.306;2022-08-04T05:12:32;8.65;;;5.10;;
43933;SDS011;59081;42.706;23.306;2022-08-04T05:15:06;9.50;;;4.97;;
43933;SDS011;59081;42.706;23.306;2022-08-04T05:17:35;9.50;;;5.85;;
43933;SDS011;59081;42.706;23.306;2022-08-04T05:20:09;16.47;;;4.90;;
43933;SDS011;59081;42.706;23.306;2022-08-04T05:25:16;8.57;;;5.10;;
43933;SDS011;59081;42.706;23.306;2022-08-04T05:28:04;7.15;;;5.18;;
43933;SDS011;59081;42.706;23.306;2022-08-04T05:30:40;15.48;;;5.47;;
43933;SDS011;59081;42.706;23.306;2022-08-04T05:33:13;6.13;;;5.07;;
43933;SDS011;59081;42.706;23.306;2022-08-04T05:35:44;10.38;;;6.57;;
43933;SDS011;59081;42.706;23.306;2022-08-04T05:38:13;7.05;;;5.90;;
43933;SDS011;59081;42.706;23.306;2022-08-04T05:40:42;13.40;;;6.82;;
43933;SDS011;59081;42.706;23.306;2022-08-04T05:43:08;16.10;;;7.05;;
43933;SDS011;59081;42.706;23.306;2022-08-04T05:45:36;14.05;;;7.65;;
43933;SDS011;59081;42.706;23.306;2022-08-04T05:48:02;8.27;;;6.32;;
43933;SDS011;59081;42.706;23.306;2022-08-04T05:50:30;12.82;;;6.90;;
43933;SDS011;59081;42.706;23.306;2022-08-04T05:52:57;7.80;;;6.57;;
43933;SDS011;59081;42.706;23.306;2022-08-04T05:55:24;11.23;;;6.97;;
43933;SDS011;59081;42.706;23.306;2022-08-04T05:57:51;9.45;;;6.57;;
43933;SDS011;59081;42.706;23.306;2022-08-04T06:00:17;15.57;;;7.18;;
43933;SDS011;59081;42.706;23.306;2022-08-04T06:02:46;8.65;;;5.80;;
43933;SDS011;59081;42.706;23.306;2022-08-04T06:05:14;7.68;;;6.88;;
43933;SDS011;59081;42.706;23.306;2022-08-04T06:07:42;14.40;;;6.45;;
43933;SDS011;59081;42.706;23.306;2022-08-04T06:10:08;7.40;;;6.38;;
43933;SDS011;59081;42.706;23.306;2022-08-04T06:12:48;12.93;;;6.32;;
43933;SDS011;59081;42.706;23.306;2022-08-04T06:15:18;8.00;;;6.85;;
43933;SDS011;59081;42.706;23.306;2022-08-04T06:17:47;14.07;;;7.47;;
43933;SDS011;59081;42.706;23.306;2022-08-04T06:20:14;19.42;;;7.07;;
43933;SDS011;59081;42.706;23.306;2022-08-04T06:22:41;11.95;;;7.57;;
43933;SDS011;59081;42.706;23.306;2022-08-04T06:25:10;9.43;;;6.68;;
43933;SDS011;59081;42.706;23.306;2022-08-04T06:27:39;11.93;;;7.33;;
43933;SDS011;59081;42.706;23.306;2022-08-04T06:30:07;10.32;;;7.68;;
43933;SDS011;59081;42.706;23.306;2022-08-04T06:32:38;8.75;;;7.82;;
43933;SDS011;59081;42.706;23.306;2022-08-04T06:35:13;10.30;;;7.25;;
43933;SDS011;59081;42.706;23.306;2022-08-04T06:37:43;10.45;;;7.78;;
43933;SDS011;59081;42.706;23.306;2022-08-04T06:40:20;10.68;;;7.60;;
43933;SDS011;59081;42.706;23.306;2022-08-04T06:42:47;10.85;;;6.75;;
43933;SDS011;59081;42.706;23.306;2022-08-04T06:45:14;11.07;;;7.80;;
43933;SDS011;59081;42.706;23.306;2022-08-04T06:47:41;16.75;;;7.68;;
43933;SDS011;59081;42.706;23.306;2022-08-04T06:50:08;11.48;;;7.13;;
43933;SDS011;59081;42.706;23.306;2022-08-04T06:52:35;10.77;;;7.38;;
43933;SDS011;59081;42.706;23.306;2022-08-04T06:55:02;10.63;;;7.25;;
43933;SDS011;59081;42.706;23.306;2022-08-04T06:57:30;8.43;;;7.40;;
43933;SDS011;59081;42.706;23.306;2022-08-04T06:59:58;9.43;;;7.68;;
43933;SDS011;59081;42.706;23.306;2022-08-04T07:02:37;10.10;;;7.35;;
43933;SDS011;59081;42.706;23.306;2022-08-04T07:05:14;12.40;;;7.10;;
43933;SDS011;59081;42.706;23.306;2022-08-04T07:07:40;12.32;;;7.55;;
43933;SDS011;59081;42.706;23.306;2022-08-04T07:10:07;11.60;;;6.90;;
43933;SDS011;59081;42.706;23.306;2022-08-04T07:12:33;9.40;;;7.85;;
43933;SDS011;59081;42.706;23.306;2022-08-04T07:14:59;12.48;;;8.13;;
43933;SDS011;59081;42.706;23.306;2022-08-04T07:17:25;9.35;;;8.00;;
43933;SDS011;59081;42.706;23.306;2022-08-04T07:19:52;10.68;;;7.90;;
43933;SDS011;59081;42.706;23.306;2022-08-04T07:22:18;10.90;;;7.47;;
43933;SDS011;59081;42.706;23.306;2022-08-04T07:24:44;9.77;;;6.78;;
43933;SDS011;59081;42.706;23.306;2022-08-04T07:27:10;9.07;;;6.80;;
43933;SDS011;59081;42.706;23.306;2022-08-04T07:29:36;10.15;;;7.97;;
43933;SDS011;59081;42.706;23.306;2022-08-04T07:32:02;10.85;;;8.55;;
43933;SDS011;59081;42.706;23.306;2022-08-04T07:34:29;14.85;;;7.82;;
43933;SDS011;59081;42.706;23.306;2022-08-04T07:36:57;12.73;;;7.75;;
43933;SDS011;59081;42.706;23.306;2022-08-04T07:39:24;15.05;;;7.72;;
43933;SDS011;59081;42.706;23.306;2022-08-04T07:41:52;10.13;;;8.05;;
43933;SDS011;59081;42.706;23.306;2022-08-04T07:44:19;12.75;;;8.95;;
43933;SDS011;59081;42.706;23.306;2022-08-04T07:46:45;13.20;;;7.43;;
43933;SDS011;59081;42.706;23.306;2022-08-04T07:49:11;17.30;;;7.47;;
43933;SDS011;59081;42.706;23.306;2022-08-04T07:51:37;9.20;;;6.70;;
43933;SDS011;59081;42.706;23.306;2022-08-04T07:54:04;9.13;;;6.68;;
43933;SDS011;59081;42.706;23.306;2022-08-04T07:56:32;9.65;;;6.47;;
43933;SDS011;59081;42.706;23.306;2022-08-04T07:58:59;10.18;;;7.13;;
43933;SDS011;59081;42.706;23.306;2022-08-04T08:01:25;14.60;;;7.30;;
43933;SDS011;59081;42.706;23.306;2022-08-04T08:03:52;11.65;;;7.18;;
43933;SDS011;59081;42.706;23.306;2022-08-04T08:06:19;13.15;;;7.38;;
43933;SDS011;59081;42.706;23.306;2022-08-04T08:08:45;8.98;;;7.43;;
43933;SDS011;59081;42.706;23.306;2022-08-04T08:11:11;14.82;;;7.57;;
43933;SDS011;59081;42.706;23.306;2022-08-04T08:13:37;12.60;;;6.82;;
43933;SDS011;59081;42.706;23.306;2022-08-04T08:16:03;9.88;;;6.18;;
43933;SDS011;59081;42.706;23.306;2022-08-04T08:18:30;14.23;;;6.78;;
43933;SDS011;59081;42.706;23.306;2022-08-04T08:20:56;5.80;;;4.30;;
43933;SDS011;59081;42.706;23.306;2022-08-04T08:23:22;12.52;;;5.72;;
43933;SDS011;59081;42.706;23.306;2022-08-04T08:25:48;8.02;;;5.28;;
43933;SDS011;59081;42.706;23.306;2022-08-04T08:28:14;5.38;;;4.88;;
43933;SDS011;59081;42.706;23.306;2022-08-04T08:30:42;6.90;;;5.40;;
43933;SDS011;59081;42.706;23.306;2022-08-04T08:33:11;11.27;;;5.00;;
43933;SDS011;59081;42.706;23.306;2022-08-04T08:38:10;7.28;;;5.43;;
43933;SDS011;59081;42.706;23.306;2022-08-04T08:40:47;8.60;;;5.15;;
43933;SDS011;59081;42.706;23.306;2022-08-04T08:43:39;11.00;;;5.20;;
43933;SDS011;59081;42.706;23.306;2022-08-04T08:49:08;8.15;;;5.22;;
43933;SDS011;59081;42.706;23.306;2022-08-04T08:51:54;7.72;;;5.22;;
43933;SDS011;59081;42.706;23.306;2022-08-04T08:57:11;7.35;;;4.80;;
43933;SDS011;59081;42.706;23.306;2022-08-04T09:00:04;8.32;;;5.82;;
43933;SDS011;59081;42.706;23.306;2022-08-04T09:10:59;11.13;;;5.47;;
43933;SDS011;59081;42.706;23.306;2022-08-04T09:16:14;7.10;;;4.28;;
43933;SDS011;59081;42.706;23.306;2022-08-04T09:27:17;13.20;;;4.00;;
43933;SDS011;59081;42.706;23.306;2022-08-04T09:35:14;9.20;;;4.28;;
43933;SDS011;59081;42.706;23.306;2022-08-04T09:52:00;4.18;;;3.17;;
43933;SDS011;59081;42.706;23.306;2022-08-04T09:54:31;7.25;;;3.30;;
43933;SDS011;59081;42.706;23.306;2022-08-04T09:57:19;5.55;;;3.40;;
43933;SDS011;59081;42.706;23.306;2022-08-04T10:02:39;3.90;;;2.03;;
43933;SDS011;59081;42.706;23.306;2022-08-04T10:05:12;6.30;;;2.55;;
43933;SDS011;59081;42.706;23.306;2022-08-04T10:13:22;1.98;;;1.52;;
43933;SDS011;59081;42.706;23.306;2022-08-04T10:29:25;2.15;;;1.95;;
43933;SDS011;59081;42.706;23.306;2022-08-04T10:31:59;3.05;;;1.98;;
43933;SDS011;59081;42.706;23.306;2022-08-04T10:34:43;4.43;;;2.08;;
43933;SDS011;59081;42.706;23.306;2022-08-04T10:40:39;3.25;;;2.25;;
43933;SDS011;59081;42.706;23.306;2022-08-04T10:48:43;6.15;;;1.90;;
43933;SDS011;59081;42.706;23.306;2022-08-04T10:51:35;2.15;;;1.88;;
43933;SDS011;59081;42.706;23.306;2022-08-04T10:54:16;2.42;;;1.58;;
43933;SDS011;59081;42.706;23.306;2022-08-04T10:57:19;3.40;;;1.70;;
43933;SDS011;59081;42.706;23.306;2022-08-04T11:00:00;2.35;;;1.88;;
43933;SDS011;59081;42.706;23.306;2022-08-04T11:08:29;4.40;;;1.83;;
43933;SDS011;59081;42.706;23.306;2022-08-04T11:11:12;4.57;;;2.05;;
43933;SDS011;59081;42.706;23.306;2022-08-04T11:13:45;2.40;;;1.67;;
43933;SDS011;59081;42.706;23.306;2022-08-04T11:16:18;5.22;;;1.73;;
43933;SDS011;59081;42.706;23.306;2022-08-04T11:18:52;2.88;;;2.03;;
43933;SDS011;59081;42.706;23.306;2022-08-04T11:21:33;2.40;;;1.70;;
43933;SDS011;59081;42.706;23.306;2022-08-04T11:24:15;3.67;;;1.60;;
43933;SDS011;59081;42.706;23.306;2022-08-04T11:26:56;3.85;;;1.83;;
43933;SDS011;59081;42.706;23.306;2022-08-04T11:29:43;2.80;;;1.70;;
43933;SDS011;59081;42.706;23.306;2022-08-04T11:34:56;6.88;;;1.73;;
43933;SDS011;59081;42.706;23.306;2022-08-04T11:37:40;6.82;;;1.92;;
43933;SDS011;59081;42.706;23.306;2022-08-04T11:40:22;6.53;;;1.95;;
43933;SDS011;59081;42.706;23.306;2022-08-04T11:43:01;2.85;;;1.42;;
43933;SDS011;59081;42.706;23.306;2022-08-04T11:45:37;2.30;;;1.60;;
43933;SDS011;59081;42.706;23.306;2022-08-04T11:48:10;1.77;;;1.65;;
43933;SDS011;59081;42.706;23.306;2022-08-04T11:50:43;1.83;;;1.63;;
43933;SDS011;59081;42.706;23.306;2022-08-04T11:53:13;5.47;;;1.60;;
43933;SDS011;59081;42.706;23.306;2022-08-04T11:55:44;1.77;;;1.65;;
43933;SDS011;59081;42.706;23.306;2022-08-04T11:58:10;3.83;;;1.75;;
43933;SDS011;59081;42.706;23.306;2022-08-04T12:00:37;4.20;;;1.85;;
43933;SDS011;59081;42.706;23.306;2022-08-04T12:11:24;4.22;;;2.55;;
43933;SDS011;59081;42.706;23.306;2022-08-04T12:17:04;3.70;;;2.20;;
43933;SDS011;59081;42.706;23.306;2022-08-04T12:19:44;2.20;;;2.00;;
43933;SDS011;59081;42.706;23.306;2022-08-04T12:22:22;3.55;;;2.17;;
43933;SDS011;59081;42.706;23.306;2022-08-04T12:24:53;2.92;;;2.03;;
43933;SDS011;59081;42.706;23.306;2022-08-04T12:27:23;3.33;;;2.35;;
43933;SDS011;59081;42.706;23.306;2022-08-04T12:29:52;3.47;;;1.90;;
43933;SDS011;59081;42.706;23.306;2022-08-04T12:32:25;2.90;;;2.20;;
43933;SDS011;59081;42.706;23.306;2022-08-04T12:34:59;4.50;;;2.67;;
43933;SDS011;59081;42.706;23.306;2022-08-04T12:38:07;2.70;;;2.50;;
43933;SDS011;59081;42.706;23.306;2022-08-04T12:40:49;2.58;;;2.10;;
43933;SDS011;59081;42.706;23.306;2022-08-04T12:43:22;2.85;;;2.53;;
43933;SDS011;59081;42.706;23.306;2022-08-04T12:45:49;3.53;;;2.75;;
43933;SDS011;59081;42.706;23.306;2022-08-04T12:48:17;7.85;;;2.72;;
43933;SDS011;59081;42.706;23.306;2022-08-04T12:50:50;4.68;;;2.35;;
43933;SDS011;59081;42.706;23.306;2022-08-04T12:53:18;2.45;;;2.00;;
43933;SDS011;59081;42.706;23.306;2022-08-04T12:55:47;2.95;;;2.20;;
43933;SDS011;59081;42.706;23.306;2022-08-04T12:58:20;3.10;;;2.25;;
43933;SDS011;59081;42.706;23.306;2022-08-04T13:00:59;3.42;;;2.38;;
43933;SDS011;59081;42.706;23.306;2022-08-04T13:06:14;2.60;;;2.38;;
43933;SDS011;59081;42.706;23.306;2022-08-04T13:08:41;2.35;;;2.15;;
43933;SDS011;59081;42.706;23.306;2022-08-04T13:11:09;3.22;;;1.98;;
43933;SDS011;59081;42.706;23.306;2022-08-04T13:13:36;2.38;;;2.10;;
43933;SDS011;59081;42.706;23.306;2022-08-04T13:16:07;4.85;;;2.30;;
43933;SDS011;59081;42.706;23.306;2022-08-04T13:21:16;3.90;;;2.30;;
43933;SDS011;59081;42.706;23.306;2022-08-04T13:23:42;4.78;;;2.20;;
43933;SDS011;59081;42.706;23.306;2022-08-04T13:26:11;2.83;;;2.20;;
43933;SDS011;59081;42.706;23.306;2022-08-04T13:28:45;4.22;;;2.40;;
43933;SDS011;59081;42.706;23.306;2022-08-04T13:31:20;2.70;;;2.40;;
43933;SDS011;59081;42.706;23.306;2022-08-04T13:33:48;2.35;;;2.05;;
43933;SDS011;59081;42.706;23.306;2022-08-04T13:36:16;2.15;;;1.95;;
43933;SDS011;59081;42.706;23.306;2022-08-04T13:38:50;3.08;;;2.30;;
43933;SDS011;59081;42.706;23.306;2022-08-04T13:41:19;2.17;;;1.98;;
43933;SDS011;59081;42.706;23.306;2022-08-04T13:43:47;4.70;;;2.20;;
43933;SDS011;59081;42.706;23.306;2022-08-04T13:46:17;3.58;;;2.05;;
43933;SDS011;59081;42.706;23.306;2022-08-04T13:48:46;4.57;;;2.40;;
43933;SDS011;59081;42.706;23.306;2022-08-04T13:51:14;2.83;;;1.98;;
43933;SDS011;59081;42.706;23.306;2022-08-04T13:53:42;2.45;;;2.05;;
43933;SDS011;59081;42.706;23.306;2022-08-04T13:56:08;2.53;;;2.13;;
43933;SDS011;59081;42.706;23.306;2022-08-04T13:58:42;2.38;;;2.10;;
43933;SDS011;59081;42.706;23.306;2022-08-04T14:01:21;3.97;;;2.47;;
43933;SDS011;59081;42.706;23.306;2022-08-04T14:04:01;5.65;;;2.42;;
43933;SDS011;59081;42.706;23.306;2022-08-04T14:06:31;2.22;;;1.92;;
43933;SDS011;59081;42.706;23.306;2022-08-04T14:09:20;4.93;;;2.00;;
43933;SDS011;59081;42.706;23.306;2022-08-04T14:14:27;2.78;;;2.17;;
43933;SDS011;59081;42.706;23.306;2022-08-04T14:19:22;4.38;;;2.20;;
43933;SDS011;59081;42.706;23.306;2022-08-04T14:21:48;3.15;;;2.30;;
43933;SDS011;59081;42.706;23.306;2022-08-04T14:24:26;3.67;;;2.30;;
43933;SDS011;59081;42.706;23.306;2022-08-04T14:26:57;3.50;;;2.10;;
43933;SDS011;59081;42.706;23.306;2022-08-04T14:29:24;2.42;;;2.20;;
43933;SDS011;59081;42.706;23.306;2022-08-04T14:31:49;5.47;;;1.60;;
43933;SDS011;59081;42.706;23.306;2022-08-04T14:34:27;3.83;;;2.30;;
43933;SDS011;59081;42.706;23.306;2022-08-04T14:36:54;2.38;;;2.17;;
43933;SDS011;59081;42.706;23.306;2022-08-04T14:42:06;4.75;;;2.50;;
43933;SDS011;59081;42.706;23.306;2022-08-04T14:44:50;2.47;;;2.28;;
43933;SDS011;59081;42.706;23.306;2022-08-04T14:48:05;2.55;;;2.28;;
43933;SDS011;59081;42.706;23.306;2022-08-04T14:50:09;4.75;;;2.55;;
43933;SDS011;59081;42.706;23.306;2022-08-04T14:52:36;4.05;;;2.20;;
43933;SDS011;59081;42.706;23.306;2022-08-04T14:55:21;2.40;;;2.20;;
43933;SDS011;59081;42.706;23.306;2022-08-04T14:57:48;3.00;;;2.17;;
43933;SDS011;59081;42.706;23.306;2022-08-04T15:00:25;4.22;;;2.63;;
43933;SDS011;59081;42.706;23.306;2022-08-04T15:03:05;4.20;;;2.35;;
43933;SDS011;59081;42.706;23.306;2022-08-04T15:05:38;4.20;;;2.55;;
43933;SDS011;59081;42.706;23.306;2022-08-04T15:08:05;6.03;;;2.60;;
43933;SDS011;59081;42.706;23.306;2022-08-04T15:10:32;4.10;;;2.30;;
43933;SDS011;59081;42.706;23.306;2022-08-04T15:12:57;3.03;;;2.47;;
43933;SDS011;59081;42.706;23.306;2022-08-04T15:15:23;4.85;;;2.50;;
43933;SDS011;59081;42.706;23.306;2022-08-04T15:17:50;5.57;;;2.45;;
43933;SDS011;59081;42.706;23.306;2022-08-04T15:20:18;3.67;;;2.30;;
43933;SDS011;59081;42.706;23.306;2022-08-04T15:22:43;4.65;;;2.20;;
43933;SDS011;59081;42.706;23.306;2022-08-04T15:25:09;6.53;;;2.72;;
43933;SDS011;59081;42.706;23.306;2022-08-04T15:27:35;6.93;;;2.67;;
43933;SDS011;59081;42.706;23.306;2022-08-04T15:30:04;4.05;;;2.60;;
43933;SDS011;59081;42.706;23.306;2022-08-04T15:32:32;7.75;;;2.75;;
43933;SDS011;59081;42.706;23.306;2022-08-04T15:38:21;9.32;;;2.55;;
43933;SDS011;59081;42.706;23.306;2022-08-04T15:45:54;10.70;;;3.05;;
43933;SDS011;59081;42.706;23.306;2022-08-04T15:48:24;19.73;;;2.90;;
43933;SDS011;59081;42.706;23.306;2022-08-04T15:53:22;46.35;;;5.18;;
43933;SDS011;59081;42.706;23.306;2022-08-04T15:55:51;32.60;;;4.38;;
43933;SDS011;59081;42.706;23.306;2022-08-04T15:58:18;14.85;;;3.42;;
43933;SDS011;59081;42.706;23.306;2022-08-04T16:08:25;38.33;;;5.72;;
43933;SDS011;59081;42.706;23.306;2022-08-04T16:10:51;4.07;;;2.42;;
43933;SDS011;59081;42.706;23.306;2022-08-04T16:13:19;9.13;;;3.20;;
43933;SDS011;59081;42.706;23.306;2022-08-04T16:15:51;16.67;;;3.33;;
43933;SDS011;59081;42.706;23.306;2022-08-04T16:20:52;3.75;;;2.60;;
43933;SDS011;59081;42.706;23.306;2022-08-04T16:26:06;6.93;;;2.72;;
43933;SDS011;59081;42.706;23.306;2022-08-04T16:28:36;10.40;;;2.63;;
43933;SDS011;59081;42.706;23.306;2022-08-04T16:31:05;5.40;;;2.70;;
43933;SDS011;59081;42.706;23.306;2022-08-04T16:33:31;8.35;;;3.00;;
43933;SDS011;59081;42.706;23.306;2022-08-04T16:35:58;6.45;;;2.42;;
43933;SDS011;59081;42.706;23.306;2022-08-04T16:38:24;4.95;;;2.50;;
43933;SDS011;59081;42.706;23.306;2022-08-04T16:40:54;2.50;;;2.25;;
43933;SDS011;59081;42.706;23.306;2022-08-04T16:43:21;5.50;;;2.25;;
43933;SDS011;59081;42.706;23.306;2022-08-04T16:45:54;5.00;;;2.50;;
43933;SDS011;59081;42.706;23.306;2022-08-04T16:48:29;8.38;;;2.55;;
43933;SDS011;59081;42.706;23.306;2022-08-04T16:51:01;2.88;;;2.30;;
43933;SDS011;59081;42.706;23.306;2022-08-04T16:53:28;2.58;;;2.10;;
43933;SDS011;59081;42.706;23.306;2022-08-04T16:55:58;2.75;;;2.17;;
43933;SDS011;59081;42.706;23.306;2022-08-04T16:58:28;6.53;;;2.70;;
43933;SDS011;59081;42.706;23.306;2022-08-04T17:00:55;3.83;;;3.13;;
43933;SDS011;59081;42.706;23.306;2022-08-04T17:03:21;5.90;;;3.22;;
43933;SDS011;59081;42.706;23.306;2022-08-04T17:05:47;5.60;;;3.25;;
43933;SDS011;59081;42.706;23.306;2022-08-04T17:08:13;4.47;;;3.13;;
43933;SDS011;59081;42.706;23.306;2022-08-04T17:10:45;4.18;;;3.22;;
43933;SDS011;59081;42.706;23.306;2022-08-04T17:13:29;3.00;;;2.70;;
43933;SDS011;59081;42.706;23.306;2022-08-04T17:16:01;5.47;;;2.78;;
43933;SDS011;59081;42.706;23.306;2022-08-04T17:18:32;3.42;;;2.97;;
43933;SDS011;59081;42.706;23.306;2022-08-04T17:21:01;3.35;;;2.70;;
43933;SDS011;59081;42.706;23.306;2022-08-04T17:23:31;5.50;;;2.53;;
43933;SDS011;59081;42.706;23.306;2022-08-04T17:28:39;5.95;;;3.33;;
43933;SDS011;59081;42.706;23.306;2022-08-04T17:31:07;5.18;;;2.90;;
43933;SDS011;59081;42.706;23.306;2022-08-04T17:33:34;7.65;;;4.00;;
43933;SDS011;59081;42.706;23.306;2022-08-04T17:36:02;5.55;;;3.25;;
43933;SDS011;59081;42.706;23.306;2022-08-04T17:41:03;6.75;;;3.08;;
43933;SDS011;59081;42.706;23.306;2022-08-04T17:46:16;4.22;;;3.03;;
43933;SDS011;59081;42.706;23.306;2022-08-04T17:54:12;3.35;;;3.00;;
43933;SDS011;59081;42.706;23.306;2022-08-04T17:56:41;4.13;;;3.67;;
43933;SDS011;59081;42.706;23.306;2022-08-04T18:22:46;8.98;;;4.10;;
43933;SDS011;59081;42.706;23.306;2022-08-04T18:25:13;7.00;;;4.35;;
43933;SDS011;59081;42.706;23.306;2022-08-04T18:27:50;6.80;;;3.92;;
43933;SDS011;59081;42.706;23.306;2022-08-04T18:30:18;5.07;;;3.47;;
43933;SDS011;59081;42.706;23.306;2022-08-04T18:32:44;5.38;;;4.00;;
43933;SDS011;59081;42.706;23.306;2022-08-04T18:35:10;5.70;;;4.07;;
43933;SDS011;59081;42.706;23.306;2022-08-04T18:37:36;5.93;;;4.40;;
43933;SDS011;59081;42.706;23.306;2022-08-04T18:40:03;5.63;;;4.05;;
43933;SDS011;59081;42.706;23.306;2022-08-04T18:42:30;6.05;;;4.40;;
43933;SDS011;59081;42.706;23.306;2022-08-04T18:44:55;10.70;;;4.60;;
43933;SDS011;59081;42.706;23.306;2022-08-04T18:47:21;7.70;;;5.03;;
43933;SDS011;59081;42.706;23.306;2022-08-04T18:49:51;8.20;;;4.55;;
43933;SDS011;59081;42.706;23.306;2022-08-04T18:52:17;5.28;;;4.35;;
43933;SDS011;59081;42.706;23.306;2022-08-04T18:54:43;9.07;;;4.50;;
43933;SDS011;59081;42.706;23.306;2022-08-04T18:57:08;6.47;;;4.68;;
43933;SDS011;59081;42.706;23.306;2022-08-04T18:59:34;8.77;;;4.00;;
43933;SDS011;59081;42.706;23.306;2022-08-04T19:02:00;6.47;;;4.15;;
43933;SDS011;59081;42.706;23.306;2022-08-04T19:04:25;8.02;;;5.88;;
43933;SDS011;59081;42.706;23.306;2022-08-04T19:06:51;10.43;;;5.35;;
43933;SDS011;59081;42.706;23.306;2022-08-04T19:09:18;9.48;;;5.07;;
43933;SDS011;59081;42.706;23.306;2022-08-04T19:11:43;8.15;;;4.88;;
43933;SDS011;59081;42.706;23.306;2022-08-04T19:14:09;9.80;;;5.45;;
43933;SDS011;59081;42.706;23.306;2022-08-04T19:16:34;16.42;;;6.50;;
43933;SDS011;59081;42.706;23.306;2022-08-04T19:19:01;7.72;;;5.70;;
43933;SDS011;59081;42.706;23.306;2022-08-04T19:21:28;18.73;;;6.65;;
43933;SDS011;59081;42.706;23.306;2022-08-04T19:23:54;14.15;;;6.15;;
43933;SDS011;59081;42.706;23.306;2022-08-04T19:26:20;10.05;;;5.70;;
43933;SDS011;59081;42.706;23.306;2022-08-04T19:28:47;11.55;;;6.75;;
43933;SDS011;59081;42.706;23.306;2022-08-04T19:31:13;13.45;;;6.97;;
43933;SDS011;59081;42.706;23.306;2022-08-04T19:33:39;16.02;;;7.00;;
43933;SDS011;59081;42.706;23.306;2022-08-04T19:36:06;13.23;;;7.10;;
43933;SDS011;59081;42.706;23.306;2022-08-04T19:38:32;10.63;;;5.85;;
43933;SDS011;59081;42.706;23.306;2022-08-04T19:40:58;18.48;;;7.38;;
43933;SDS011;59081;42.706;23.306;2022-08-04T19:43:24;7.72;;;5.93;;
43933;SDS011;59081;42.706;23.306;2022-08-04T19:45:50;8.27;;;5.93;;
43933;SDS011;59081;42.706;23.306;2022-08-04T19:48:18;9.98;;;5.72;;
43933;SDS011;59081;42.706;23.306;2022-08-04T19:50:44;12.18;;;6.47;;
43933;SDS011;59081;42.706;23.306;2022-08-04T19:53:09;14.65;;;6.13;;
43933;SDS011;59081;42.706;23.306;2022-08-04T19:55:35;7.25;;;5.25;;
43933;SDS011;59081;42.706;23.306;2022-08-04T19:58:04;9.75;;;5.35;;
43933;SDS011;59081;42.706;23.306;2022-08-04T20:00:31;7.57;;;6.05;;
43933;SDS011;59081;42.706;23.306;2022-08-04T20:02:56;14.40;;;5.53;;
43933;SDS011;59081;42.706;23.306;2022-08-04T20:05:23;10.40;;;5.70;;